createdAt,value
2017-12-19T07:03:56.240Z,32
2017-12-19T07:05:04.770Z,52
2017-12-19T07:06:13.854Z,64
2017-12-19T07:07:22.661Z,72
2017-12-19T07:08:31.511Z,80
2017-12-19T07:09:40.044Z,80
2017-12-19T07:10:48.576Z,84
2017-12-19T07:11:57.648Z,84
2017-12-19T07:13:06.448Z,84
2017-12-19T07:14:15.245Z,84
2017-12-19T07:15:24.046Z,88
2017-12-19T07:16:32.846Z,92
2017-12-19T07:17:41.919Z,92
2017-12-19T07:18:50.998Z,92
2017-12-19T07:19:59.849Z,92
2017-12-19T07:21:08.716Z,96
2017-12-19T07:22:17.527Z,100
2017-12-19T07:23:26.061Z,104
2017-12-19T07:24:35.128Z,108
2017-12-19T07:25:43.710Z,112
2017-12-19T07:26:52.509Z,116
2017-12-19T07:28:01.309Z,124
2017-12-19T07:29:09.840Z,128
2017-12-19T07:30:18.913Z,136
2017-12-19T07:31:27.763Z,140
2017-12-19T07:32:36.562Z,148
2017-12-19T07:33:45.972Z,156
2017-12-19T07:34:54.767Z,164
2017-12-19T07:36:03.838Z,172
2017-12-19T07:37:12.972Z,184
2017-12-19T07:38:21.772Z,184
2017-12-19T07:39:30.572Z,196
2017-12-19T07:40:39.691Z,192
2017-12-19T07:41:48.398Z,200
2017-12-19T07:42:57.514Z,208
2017-12-19T07:44:06.582Z,220
2017-12-19T07:45:15.152Z,224
2017-12-19T07:46:23.942Z,236
2017-12-19T07:47:33.208Z,252
2017-12-19T07:48:42.373Z,268
2017-12-19T07:49:51.455Z,284
2017-12-19T07:51:00.847Z,292
2017-12-19T07:52:10.182Z,320
2017-12-19T07:53:18.716Z,344
2017-12-19T07:54:27.299Z,372
2017-12-19T07:55:36.136Z,400
2017-12-19T07:56:44.945Z,424
2017-12-19T07:57:53.747Z,444
2017-12-19T07:59:02.553Z,472
2017-12-19T08:00:11.357Z,496
2017-12-19T08:01:20.164Z,496
2017-12-19T08:02:28.971Z,520
2017-12-19T08:03:37.773Z,544
2017-12-19T08:04:46.307Z,572
2017-12-19T08:05:55.156Z,600
2017-12-19T08:07:03.959Z,644
2017-12-19T08:08:12.495Z,644
2017-12-19T08:09:21.301Z,664
2017-12-19T08:10:30.144Z,696
2017-12-19T08:11:38.726Z,708
2017-12-19T08:12:47.269Z,732
2017-12-19T08:13:55.807Z,764
2017-12-19T08:15:04.395Z,784
2017-12-19T08:16:13.120Z,784
2017-12-19T08:17:22.283Z,788
2017-12-19T08:18:31.360Z,816
2017-12-19T08:19:40.186Z,844
2017-12-19T08:20:49.069Z,860
2017-12-19T08:21:57.913Z,876
2017-12-19T08:23:07.089Z,868
2017-12-19T08:24:15.893Z,844
2017-12-19T08:25:24.477Z,872
2017-12-19T08:26:33.444Z,916
2017-12-19T08:27:42.270Z,944
2017-12-19T08:28:50.984Z,960
2017-12-19T08:29:59.525Z,980
2017-12-19T08:31:09.137Z,1008
2017-12-19T08:32:18.051Z,992
2017-12-19T08:33:26.879Z,1012
2017-12-19T08:34:35.992Z,1060
2017-12-19T08:35:44.818Z,1100
2017-12-19T08:36:53.353Z,1176
2017-12-19T08:38:01.888Z,1196
2017-12-19T08:39:10.963Z,1236
2017-12-19T08:40:19.549Z,1276
2017-12-19T08:41:28.086Z,1320
2017-12-19T08:42:37.155Z,1344
2017-12-19T08:43:45.689Z,1408
2017-12-19T08:44:54.541Z,1476
2017-12-19T08:46:03.083Z,1476
2017-12-19T08:47:11.887Z,1504
2017-12-19T08:48:20.686Z,1552
2017-12-19T08:49:29.733Z,1592
2017-12-19T08:50:38.386Z,1568
2017-12-19T08:51:46.971Z,1556
2017-12-19T08:52:56.302Z,1456
2017-12-19T08:54:05.116Z,1376
2017-12-19T08:55:14.200Z,1264
2017-12-19T08:56:22.733Z,1192
2017-12-19T08:57:31.819Z,1140
2017-12-19T08:58:40.614Z,1064
2017-12-19T08:59:49.474Z,1028
2017-12-19T09:00:58.277Z,1044
2017-12-19T09:02:06.813Z,1080
2017-12-19T09:03:15.934Z,1184
2017-12-19T09:04:25.273Z,1272
2017-12-19T09:05:34.339Z,1176
2017-12-19T09:06:42.902Z,1088
2017-12-19T09:07:51.703Z,1088
2017-12-19T09:09:00.505Z,1112
2017-12-19T09:10:09.309Z,1164
2017-12-19T09:11:17.843Z,1168
2017-12-19T09:12:26.381Z,1156
2017-12-19T09:13:35.182Z,1160
2017-12-19T09:14:43.768Z,1196
2017-12-19T09:15:52.569Z,1204
2017-12-19T09:17:01.107Z,1204
2017-12-19T09:18:09.908Z,1208
2017-12-19T09:19:18.444Z,1272
2017-12-19T09:20:28.238Z,1376
2017-12-19T09:21:36.875Z,1392
2017-12-19T09:22:45.828Z,1408
2017-12-19T09:23:55.520Z,1528
2017-12-19T09:25:04.827Z,1604
2017-12-19T09:26:14.229Z,1708
2017-12-19T09:27:23.601Z,1652
2017-12-19T09:28:32.892Z,1740
2017-12-19T09:29:41.854Z,2016
2017-12-19T09:30:50.663Z,2272
2017-12-19T09:31:59.455Z,2328
2017-12-19T09:33:08.256Z,2104
2017-12-19T09:34:17.056Z,1956
2017-12-19T09:35:26.292Z,1940
2017-12-19T09:36:35.193Z,1816
2017-12-19T09:37:44.903Z,1832
2017-12-19T09:38:54.063Z,1996
2017-12-19T09:40:02.633Z,2064
2017-12-19T09:41:11.440Z,1968
2017-12-19T09:42:20.249Z,1988
2017-12-19T09:43:29.069Z,2004
2017-12-19T09:44:37.891Z,2232
2017-12-19T09:45:46.695Z,2284
2017-12-19T09:46:55.763Z,2084
2017-12-19T09:48:04.786Z,1900
2017-12-19T09:49:14.169Z,1940
2017-12-19T09:50:22.731Z,1956
2017-12-19T09:51:32.069Z,2016
2017-12-19T09:52:41.142Z,2044
2017-12-19T09:53:49.946Z,2016
2017-12-19T09:54:58.481Z,2076
2017-12-19T09:56:07.055Z,2076
2017-12-19T09:57:15.886Z,1912
2017-12-19T09:58:24.421Z,1892
2017-12-19T09:59:33.490Z,2140
2017-12-19T10:00:42.076Z,2128
2017-12-19T10:01:50.873Z,1920
2017-12-19T10:02:59.676Z,1932
2017-12-19T10:04:08.213Z,2100
2017-12-19T10:05:17.012Z,2208
2017-12-19T10:06:26.077Z,1960
2017-12-19T10:07:34.922Z,1816
2017-12-19T10:08:43.723Z,1904
2017-12-19T10:09:52.262Z,1880
2017-12-19T10:11:01.333Z,2044
2017-12-19T10:12:10.185Z,1780
2017-12-19T10:13:18.989Z,1804
2017-12-19T10:14:27.793Z,1708
2017-12-19T10:15:37.025Z,1848
2017-12-19T10:16:45.694Z,2044
2017-12-19T10:17:54.545Z,2184
2017-12-19T10:19:03.080Z,1864
2017-12-19T10:20:11.616Z,1780
2017-12-19T10:21:20.712Z,1664
2017-12-19T10:22:29.249Z,1668
2017-12-19T10:23:38.320Z,1796
2017-12-19T10:24:47.176Z,1816
2017-12-19T10:25:55.708Z,1804
2017-12-19T10:27:04.241Z,1876
2017-12-19T10:28:12.791Z,1996
2017-12-19T10:29:21.643Z,2168
2017-12-19T10:30:30.442Z,2040
2017-12-19T10:31:39.800Z,2160
2017-12-19T10:32:48.601Z,2228
2017-12-19T10:33:57.425Z,2128
2017-12-19T10:35:06.553Z,2176
2017-12-19T10:36:15.793Z,2104
2017-12-19T10:37:24.879Z,2240
2017-12-19T10:38:33.949Z,2092
2017-12-19T10:39:42.491Z,1928
2017-12-19T10:40:51.291Z,1776
2017-12-19T10:42:00.409Z,1936
2017-12-19T10:43:08.956Z,2160
2017-12-19T10:44:17.765Z,2328
2017-12-19T10:45:26.845Z,2508
2017-12-19T10:46:35.761Z,2700
2017-12-19T10:47:44.830Z,2512
2017-12-19T10:48:53.630Z,2560
2017-12-19T10:50:02.171Z,2664
2017-12-19T10:51:11.245Z,2536
2017-12-19T10:52:20.087Z,2692
2017-12-19T10:53:28.892Z,2712
2017-12-19T10:54:37.699Z,2476
2017-12-19T10:55:46.233Z,2620
2017-12-19T10:56:55.056Z,3080
2017-12-19T10:58:03.639Z,3428
2017-12-19T10:59:12.441Z,3788
2017-12-19T11:00:21.509Z,3800
2017-12-19T11:01:30.312Z,4004
2017-12-19T11:02:38.855Z,4104
2017-12-19T11:03:47.395Z,3856
2017-12-19T11:04:55.929Z,3540
2017-12-19T11:06:04.463Z,3104
2017-12-19T11:07:13.264Z,2968
2017-12-19T11:08:22.329Z,3020
2017-12-19T11:09:31.130Z,3140
2017-12-19T11:10:39.960Z,3352
2017-12-19T11:11:49.027Z,3440
2017-12-19T11:12:58.374Z,3524
2017-12-19T11:14:07.197Z,3452
2017-12-19T11:15:17.786Z,3736
2017-12-19T11:16:27.355Z,4108
2017-12-19T11:17:36.424Z,3756
2017-12-19T11:18:44.969Z,3792
2017-12-19T11:19:53.507Z,3868
2017-12-19T11:21:02.442Z,3832
2017-12-19T11:22:11.245Z,3616
2017-12-19T11:23:20.312Z,3508
2017-12-19T11:24:29.114Z,3336
2017-12-19T11:25:37.649Z,3648
2017-12-19T11:26:46.449Z,3536
2017-12-19T11:27:54.984Z,3536
2017-12-19T11:29:04.048Z,3252
2017-12-19T11:30:12.847Z,3388
2017-12-19T11:31:21.652Z,3744
2017-12-19T11:32:30.508Z,3588
2017-12-19T11:33:39.573Z,3688
2017-12-19T11:34:48.376Z,3736
2017-12-19T11:35:57.176Z,3652
2017-12-19T11:37:06.281Z,3780
2017-12-19T11:38:15.083Z,3676
2017-12-19T11:39:23.890Z,3352
2017-12-19T11:40:32.700Z,3376
2017-12-19T11:41:41.504Z,3336
2017-12-19T11:42:50.303Z,3320
2017-12-19T11:43:59.136Z,3304
2017-12-19T11:45:07.936Z,3452
2017-12-19T11:46:16.476Z,3788
2017-12-19T11:47:25.276Z,4128
2017-12-19T11:48:33.808Z,4176
2017-12-19T11:49:42.883Z,4520
2017-12-19T11:50:51.683Z,4128
2017-12-19T11:52:00.763Z,3988
2017-12-19T11:53:09.564Z,4092
2017-12-19T11:54:18.745Z,3956
2017-12-19T11:55:27.243Z,3904
2017-12-19T11:56:36.646Z,3924
2017-12-19T11:57:45.448Z,3912
2017-12-19T11:58:53.987Z,3764
2017-12-19T12:00:02.518Z,3732
2017-12-19T12:01:11.068Z,3784
2017-12-19T12:02:19.601Z,3572
2017-12-19T12:03:28.134Z,3512
2017-12-19T12:04:37.479Z,3816
2017-12-19T12:05:46.280Z,4020
2017-12-19T12:06:55.398Z,3716
2017-12-19T12:08:04.740Z,3412
2017-12-19T12:09:13.539Z,3596
2017-12-19T12:10:22.607Z,4152
2017-12-19T12:11:31.673Z,4472
2017-12-19T12:12:40.528Z,4120
2017-12-19T12:13:49.329Z,4088
2017-12-19T12:14:58.134Z,4248
2017-12-19T12:16:07.208Z,4356
2017-12-19T12:17:15.750Z,4444
2017-12-19T12:18:24.559Z,4084
2017-12-19T12:19:33.360Z,3780
2017-12-19T12:20:42.164Z,3452
2017-12-19T12:21:51.231Z,3340
2017-12-19T12:22:59.764Z,3200
2017-12-19T12:24:08.651Z,3380
2017-12-19T12:25:17.512Z,3208
2017-12-19T12:26:26.255Z,3112
2017-12-19T12:27:34.835Z,2924
2017-12-19T12:28:43.365Z,3220
2017-12-19T12:29:52.170Z,3112
2017-12-19T12:31:01.240Z,2944
2017-12-19T12:32:10.325Z,2892
2017-12-19T12:33:19.129Z,3204
2017-12-19T12:34:27.933Z,3172
2017-12-19T12:35:36.518Z,2936
2017-12-19T12:36:45.450Z,3072
2017-12-19T12:37:54.301Z,2660
2017-12-19T12:39:02.837Z,2348
2017-12-19T12:40:11.372Z,2612
2017-12-19T12:41:20.537Z,2492
2017-12-19T12:42:29.424Z,2940
2017-12-19T12:43:37.964Z,2996
2017-12-19T12:44:47.033Z,3108
2017-12-19T12:45:55.568Z,2856
2017-12-19T12:47:04.685Z,3008
2017-12-19T12:48:13.234Z,3224
2017-12-19T12:49:21.775Z,3568
2017-12-19T12:50:30.587Z,3820
2017-12-19T12:51:39.123Z,3804
2017-12-19T12:52:47.961Z,3896
2017-12-19T12:53:56.763Z,3896
2017-12-19T12:55:05.565Z,3904
2017-12-19T12:56:14.100Z,3948
2017-12-19T12:57:22.683Z,4004
2017-12-19T12:58:31.485Z,3912
2017-12-19T12:59:40.286Z,3912
2017-12-19T13:00:49.086Z,3880
2017-12-19T13:01:57.624Z,3788
2017-12-19T13:03:06.432Z,3396
2017-12-19T13:04:14.967Z,3272
2017-12-19T13:05:23.500Z,3148
2017-12-19T13:06:32.309Z,2956
2017-12-19T13:07:40.848Z,2736
2017-12-19T13:08:49.382Z,2792
2017-12-19T13:09:57.967Z,2800
2017-12-19T13:11:06.503Z,2708
2017-12-19T13:12:15.342Z,2676
2017-12-19T13:13:23.907Z,2708
2017-12-19T13:14:32.443Z,2692
2017-12-19T13:15:40.987Z,2672
2017-12-19T13:16:49.512Z,2720
2017-12-19T13:17:58.319Z,2768
2017-12-19T13:19:07.387Z,2736
2017-12-19T13:20:16.197Z,2624
2017-12-19T13:21:24.784Z,2556
2017-12-19T13:22:33.320Z,2508
2017-12-19T13:23:42.122Z,2404
2017-12-19T13:24:50.701Z,2360
2017-12-19T13:25:59.235Z,2280
2017-12-19T13:27:08.037Z,2212
2017-12-19T13:28:16.574Z,2192
2017-12-19T13:29:25.377Z,2156
2017-12-19T13:30:34.178Z,2156
2017-12-19T13:31:42.982Z,2188
2017-12-19T13:32:51.518Z,2120
2017-12-19T13:34:00.588Z,2076
2017-12-19T13:35:09.395Z,2112
2017-12-19T13:36:18.198Z,2108
2017-12-19T13:37:27.061Z,2056
2017-12-19T13:38:35.863Z,2036
2017-12-19T13:39:44.406Z,2040
2017-12-19T13:40:53.476Z,1992
2017-12-19T13:42:02.277Z,1916
2017-12-19T13:43:11.347Z,1856
2017-12-19T13:44:20.734Z,1852
2017-12-19T13:45:29.538Z,1880
2017-12-19T13:46:38.664Z,1872
2017-12-19T13:47:47.734Z,1816
2017-12-19T13:48:56.571Z,1792
2017-12-19T13:50:05.104Z,1772
2017-12-19T13:51:13.984Z,1732
2017-12-19T13:52:22.787Z,1712
2017-12-19T13:53:31.324Z,1684
2017-12-19T13:54:39.866Z,1652
2017-12-19T13:55:48.810Z,1632
2017-12-19T13:56:57.763Z,1664
2017-12-19T13:58:06.606Z,1752
2017-12-19T13:59:15.300Z,1824
2017-12-19T14:00:23.835Z,1864
2017-12-19T14:01:32.903Z,1860
2017-12-19T14:02:41.704Z,1864
2017-12-19T14:03:50.239Z,1864
2017-12-19T14:04:59.318Z,1840
2017-12-19T14:06:08.384Z,1796
2017-12-19T14:07:17.013Z,1744
2017-12-19T14:08:26.082Z,1684
2017-12-19T14:09:35.110Z,1620
2017-12-19T14:10:44.309Z,1584
2017-12-19T14:11:52.845Z,1552
2017-12-19T14:13:01.917Z,1512
2017-12-19T14:14:10.739Z,1484
2017-12-19T14:15:19.276Z,1468
2017-12-19T14:16:28.083Z,1440
2017-12-19T14:17:37.216Z,1392
2017-12-19T14:18:46.571Z,1352
2017-12-19T14:19:55.391Z,1348
2017-12-19T14:21:04.191Z,1364
2017-12-19T14:22:13.097Z,1344
2017-12-19T14:23:21.962Z,1320
2017-12-19T14:24:30.497Z,1296
2017-12-19T14:25:39.303Z,1264
2017-12-19T14:26:48.102Z,1236
2017-12-19T14:27:56.635Z,1196
2017-12-19T14:29:05.736Z,1140
2017-12-19T14:30:14.269Z,1100
2017-12-19T14:31:22.804Z,1056
2017-12-19T14:32:31.873Z,1024
2017-12-19T14:33:40.968Z,984
2017-12-19T14:34:49.772Z,956
2017-12-19T14:35:58.627Z,924
2017-12-19T14:37:07.430Z,888
2017-12-19T14:38:16.239Z,856
2017-12-19T14:39:24.772Z,832
2017-12-19T14:40:33.834Z,804
2017-12-19T14:41:42.372Z,784
2017-12-19T14:42:50.927Z,768
2017-12-19T14:43:59.733Z,744
2017-12-19T14:45:08.537Z,704
2017-12-19T14:46:17.071Z,672
2017-12-19T14:47:25.609Z,644
2017-12-19T14:48:34.430Z,608
2017-12-19T14:49:43.246Z,572
2017-12-19T14:50:52.055Z,544
2017-12-19T14:52:00.858Z,524
2017-12-19T14:53:09.442Z,496
2017-12-19T14:54:18.776Z,480
2017-12-19T14:55:27.314Z,464
2017-12-19T14:56:36.115Z,448
2017-12-19T14:57:45.183Z,432
2017-12-19T14:58:54.041Z,416
2017-12-19T15:00:02.581Z,400
2017-12-19T15:01:11.173Z,396
2017-12-19T15:02:20.008Z,384
2017-12-19T15:03:28.543Z,368
2017-12-19T15:04:37.403Z,352
2017-12-19T15:05:45.942Z,332
2017-12-19T15:06:54.744Z,308
2017-12-19T15:08:03.321Z,280
2017-12-19T15:09:11.856Z,268
2017-12-19T15:10:20.387Z,264
2017-12-19T15:11:29.187Z,252
2017-12-19T15:12:37.986Z,244
2017-12-19T15:13:47.055Z,236
2017-12-19T15:14:56.131Z,232
2017-12-19T15:16:04.717Z,224
2017-12-19T15:17:13.260Z,212
2017-12-19T15:18:22.062Z,200
2017-12-19T15:19:30.865Z,188
2017-12-19T15:20:39.664Z,180
2017-12-19T15:21:48.200Z,172
2017-12-19T15:22:57.266Z,164
2017-12-19T15:24:05.799Z,164
2017-12-19T15:25:14.651Z,168
2017-12-19T15:26:23.701Z,164
2017-12-19T15:27:32.287Z,160
2017-12-19T15:28:41.355Z,152
2017-12-19T15:29:49.892Z,144
2017-12-19T15:30:58.478Z,136
2017-12-19T15:32:07.017Z,132
2017-12-19T15:33:15.868Z,128
2017-12-19T15:34:24.668Z,120
2017-12-19T15:35:33.471Z,116
2017-12-19T15:36:42.812Z,112
2017-12-19T15:37:51.908Z,104
2017-12-19T15:39:00.708Z,104
2017-12-19T15:40:09.250Z,100
2017-12-19T15:41:18.322Z,96
2017-12-19T15:42:27.117Z,92
2017-12-19T15:43:35.655Z,92
2017-12-19T15:44:45.444Z,88
2017-12-19T15:45:54.085Z,84
2017-12-19T15:47:02.618Z,84
2017-12-19T15:48:11.153Z,84
2017-12-19T15:49:19.956Z,84
2017-12-19T15:50:28.551Z,80
2017-12-19T15:51:37.631Z,80
2017-12-19T15:52:46.186Z,76
2017-12-19T15:53:54.726Z,80
2017-12-19T15:55:03.582Z,76
2017-12-19T15:56:12.652Z,76
2017-12-19T15:57:21.187Z,76
2017-12-19T15:58:29.989Z,80
2017-12-19T15:59:38.523Z,76
2017-12-19T16:00:47.593Z,76
2017-12-19T16:01:56.176Z,76
2017-12-19T16:03:05.244Z,76
2017-12-19T16:04:14.046Z,76
2017-12-19T16:05:23.113Z,76
2017-12-19T16:06:32.717Z,76
2017-12-19T16:07:41.787Z,76
2017-12-19T16:08:50.323Z,76
2017-12-19T16:09:59.127Z,76
2017-12-19T16:11:07.667Z,76
2017-12-19T16:12:16.206Z,76
2017-12-19T16:13:25.274Z,76
2017-12-19T16:14:34.340Z,72
2017-12-19T16:15:43.142Z,76
2017-12-19T16:16:52.218Z,76
2017-12-19T16:18:00.750Z,76
2017-12-19T16:19:10.084Z,76
2017-12-19T16:20:18.891Z,76
2017-12-19T16:21:27.961Z,76
2017-12-19T16:22:36.761Z,76
2017-12-19T16:23:45.564Z,76
2017-12-19T16:24:54.148Z,76
2017-12-19T16:26:02.948Z,80
2017-12-19T16:27:11.766Z,76
2017-12-19T16:28:20.568Z,76
2017-12-19T16:29:29.105Z,76
2017-12-19T16:30:37.908Z,76
2017-12-19T16:31:46.712Z,76
2017-12-19T16:32:55.520Z,76
2017-12-19T16:34:04.318Z,76
2017-12-19T16:35:13.120Z,76
2017-12-19T16:36:22.242Z,76
2017-12-19T16:37:31.313Z,76
2017-12-19T16:38:40.380Z,76
2017-12-19T16:39:49.179Z,80
2017-12-19T16:40:57.714Z,76
2017-12-19T16:42:06.523Z,80
2017-12-19T16:43:15.055Z,76
2017-12-19T16:44:23.589Z,80
2017-12-19T16:45:32.123Z,76
2017-12-19T16:46:40.926Z,76
2017-12-19T16:47:49.518Z,76
2017-12-19T16:48:58.592Z,80
2017-12-19T16:50:07.392Z,80
2017-12-19T16:51:16.475Z,80
2017-12-19T16:52:25.569Z,80
2017-12-19T16:53:34.369Z,76
2017-12-19T16:54:42.904Z,76
2017-12-19T16:55:51.442Z,80
2017-12-19T16:56:59.978Z,80
2017-12-19T16:58:08.784Z,80
2017-12-19T16:59:17.634Z,80
2017-12-19T17:00:26.700Z,80
2017-12-19T17:01:35.234Z,80
2017-12-19T17:02:44.034Z,80
2017-12-19T17:03:52.569Z,76
2017-12-19T17:05:01.425Z,76
2017-12-19T17:06:09.957Z,80
2017-12-19T17:07:18.490Z,80
2017-12-19T17:08:27.298Z,80
2017-12-19T17:09:35.832Z,76
2017-12-19T17:10:44.633Z,80
2017-12-19T17:11:53.433Z,76
2017-12-19T17:13:02.504Z,76
2017-12-19T17:14:11.041Z,76
2017-12-19T17:15:20.112Z,76
2017-12-19T17:16:28.979Z,76
2017-12-19T17:17:37.551Z,76
2017-12-19T17:18:46.376Z,76
2017-12-19T17:19:54.908Z,76
2017-12-19T17:21:03.978Z,76
2017-12-19T17:22:13.376Z,76
2017-12-19T17:23:21.909Z,76
2017-12-19T17:24:30.708Z,76
2017-12-19T17:25:39.513Z,76
2017-12-19T17:26:48.374Z,76
2017-12-19T17:27:57.178Z,76
2017-12-19T17:29:05.715Z,80
2017-12-19T17:30:14.795Z,80
2017-12-19T17:31:23.321Z,76
2017-12-19T17:32:31.854Z,80
2017-12-19T17:33:40.656Z,0
2017-12-19T17:34:49.456Z,0
2017-12-19T17:35:58.522Z,0
2017-12-19T17:37:07.056Z,0
2017-12-19T17:38:15.589Z,0
2017-12-19T17:39:24.439Z,0
2017-12-19T17:40:32.973Z,0
2017-12-19T17:41:41.507Z,0
2017-12-19T17:42:50.056Z,0
2017-12-19T17:43:59.123Z,0
2017-12-19T17:45:07.927Z,0
2017-12-19T17:46:16.733Z,0
2017-12-19T17:47:25.533Z,0
2017-12-19T17:48:34.706Z,0
2017-12-19T17:49:43.507Z,0
2017-12-19T17:50:52.045Z,0
2017-12-19T17:52:01.111Z,0
2017-12-19T17:53:09.911Z,0
2017-12-19T17:54:18.443Z,0
2017-12-19T17:55:27.779Z,0
2017-12-19T17:56:36.360Z,0
2017-12-19T17:57:45.160Z,0
2017-12-19T17:58:54.764Z,0
2017-12-19T18:00:03.568Z,0
2017-12-19T18:01:12.639Z,0
2017-12-19T18:02:21.226Z,0
2017-12-19T18:03:29.761Z,0
2017-12-19T18:04:38.828Z,0
2017-12-19T18:05:47.360Z,0
2017-12-19T18:06:55.898Z,0
2017-12-19T18:08:04.431Z,0
2017-12-19T18:09:12.963Z,0
2017-12-19T18:10:21.763Z,0
2017-12-19T18:11:30.297Z,0
2017-12-19T18:12:38.833Z,0
2017-12-19T18:13:47.626Z,0
2017-12-19T18:14:56.161Z,0
2017-12-19T18:16:04.961Z,0
2017-12-19T18:17:13.764Z,0
2017-12-19T18:18:22.294Z,0
2017-12-19T18:19:31.410Z,0
2017-12-19T18:20:40.211Z,0
2017-12-19T18:21:49.008Z,48
2017-12-19T18:22:58.077Z,60
2017-12-19T18:24:06.883Z,72
2017-12-19T18:25:15.683Z,76
2017-12-19T18:26:24.484Z,76
2017-12-19T18:27:33.017Z,76
2017-12-19T18:28:42.084Z,76
2017-12-19T18:29:50.618Z,76
2017-12-19T18:30:59.152Z,0
2017-12-19T18:32:07.684Z,0
2017-12-19T18:33:16.319Z,0
2017-12-19T18:34:25.121Z,0
2017-12-19T18:35:33.920Z,0
2017-12-19T18:36:42.986Z,0
2017-12-19T18:37:51.788Z,0
2017-12-19T18:39:00.586Z,0
2017-12-19T18:40:09.387Z,0
2017-12-19T18:41:18.454Z,0
2017-12-19T18:42:27.521Z,0
2017-12-19T18:43:36.585Z,0
2017-12-19T18:44:45.388Z,0
2017-12-19T18:45:54.457Z,0
2017-12-19T18:47:03.311Z,0
2017-12-19T18:48:11.843Z,0
2017-12-19T18:49:20.648Z,0
2017-12-19T18:50:29.450Z,0
2017-12-19T18:51:37.985Z,0
2017-12-19T18:52:47.054Z,0
2017-12-19T18:53:55.857Z,0
2017-12-19T18:55:04.390Z,0
2017-12-19T18:56:13.191Z,0
2017-12-19T18:57:22.261Z,0
2017-12-19T18:58:31.113Z,0
2017-12-19T18:59:40.184Z,0
2017-12-19T19:00:48.721Z,0
2017-12-19T19:01:57.257Z,0
2017-12-19T19:03:06.058Z,0
2017-12-19T19:04:15.447Z,0
2017-12-19T19:05:24.257Z,0
2017-12-19T19:06:32.784Z,0
2017-12-19T19:07:41.317Z,0
2017-12-19T19:08:50.391Z,0
2017-12-19T19:09:59.458Z,0
2017-12-19T19:11:08.538Z,0
2017-12-19T19:12:17.341Z,0
2017-12-19T19:13:25.874Z,0
2017-12-19T19:14:34.409Z,0
2017-12-19T19:15:43.211Z,0
2017-12-19T19:16:52.551Z,0
2017-12-19T19:18:01.356Z,0
2017-12-19T19:19:09.889Z,0
2017-12-19T19:20:18.954Z,0
2017-12-19T19:21:27.486Z,0
2017-12-19T19:22:36.019Z,0
2017-12-19T19:23:44.822Z,0
2017-12-19T19:24:54.160Z,0
2017-12-19T19:26:02.701Z,0
2017-12-19T19:27:11.498Z,0
2017-12-19T19:28:20.314Z,0
2017-12-19T19:29:28.848Z,0
2017-12-19T19:30:37.915Z,0
2017-12-19T19:31:46.454Z,0
2017-12-19T19:32:55.342Z,0
2017-12-19T19:34:03.876Z,0
2017-12-19T19:35:12.409Z,0
2017-12-19T19:36:20.948Z,0
2017-12-19T19:37:29.745Z,0
2017-12-19T19:38:38.551Z,0
2017-12-19T19:39:47.081Z,0
2017-12-19T19:40:55.882Z,0
2017-12-19T19:42:04.967Z,0
2017-12-19T19:43:13.499Z,0
2017-12-19T19:44:22.351Z,0
2017-12-19T19:45:31.152Z,0
2017-12-19T19:46:39.956Z,0
2017-12-19T19:47:48.492Z,0
2017-12-19T19:48:57.301Z,0
2017-12-19T19:50:06.420Z,0
2017-12-19T19:51:15.224Z,0
2017-12-19T19:52:23.756Z,0
2017-12-19T19:53:32.830Z,0
2017-12-19T19:54:41.893Z,0
2017-12-19T19:55:50.428Z,0
2017-12-19T19:56:59.243Z,0
2017-12-19T19:58:08.045Z,0
2017-12-19T19:59:17.120Z,0
2017-12-19T20:00:26.453Z,0
2017-12-19T20:01:35.036Z,0
2017-12-19T20:02:43.573Z,0
2017-12-19T20:03:52.376Z,0
2017-12-19T20:05:01.180Z,0
2017-12-19T20:06:09.714Z,0
2017-12-19T20:07:18.251Z,0
2017-12-19T20:08:26.779Z,0
2017-12-19T20:09:35.580Z,0
2017-12-19T20:10:44.387Z,0
2017-12-19T20:11:52.919Z,0
2017-12-19T20:13:01.453Z,0
2017-12-19T20:14:10.017Z,0
2017-12-19T20:15:19.082Z,0
2017-12-19T20:16:27.881Z,0
2017-12-19T20:17:36.468Z,0
2017-12-19T20:18:45.279Z,0
2017-12-19T20:19:53.813Z,0
2017-12-19T20:21:02.344Z,0
2017-12-19T20:22:10.881Z,0
2017-12-19T20:23:19.682Z,0
2017-12-19T20:24:28.216Z,0
2017-12-19T20:25:36.754Z,0
2017-12-19T20:26:45.554Z,0
2017-12-19T20:27:54.376Z,0
2017-12-19T20:29:03.229Z,0
2017-12-19T20:30:12.298Z,0
2017-12-19T20:31:20.833Z,0
2017-12-19T20:32:29.637Z,0
2017-12-19T20:33:38.219Z,0
2017-12-19T20:34:46.705Z,0
2017-12-19T20:35:55.239Z,0
2017-12-19T20:37:03.772Z,0
2017-12-19T20:38:12.574Z,0
2017-12-19T20:39:21.683Z,0
2017-12-19T20:40:30.532Z,0
2017-12-19T20:41:39.612Z,0
2017-12-19T20:42:48.144Z,0
2017-12-19T20:43:56.677Z,0
2017-12-19T20:45:05.219Z,0
2017-12-19T20:46:13.802Z,0
2017-12-19T20:47:22.870Z,0
2017-12-19T20:48:31.669Z,0
2017-12-19T20:49:40.470Z,0
2017-12-19T20:50:49.269Z,0
2017-12-19T20:51:58.073Z,0
2017-12-19T20:53:06.875Z,0
2017-12-19T20:54:15.952Z,0
2017-12-19T20:55:24.486Z,0
2017-12-19T20:56:33.284Z,0
2017-12-19T20:57:41.878Z,0
2017-12-19T20:58:50.726Z,0
2017-12-19T20:59:59.263Z,0
2017-12-19T21:01:08.329Z,0
2017-12-19T21:02:17.665Z,0
2017-12-19T21:03:26.197Z,0
2017-12-19T21:04:34.778Z,0
2017-12-19T21:05:43.845Z,0
2017-12-19T21:06:52.378Z,0
2017-12-19T21:08:01.454Z,0
2017-12-19T21:09:10.577Z,0
2017-12-19T21:10:19.109Z,0
2017-12-19T21:11:27.641Z,0
2017-12-19T21:12:36.497Z,0
2017-12-19T21:13:45.246Z,0
2017-12-19T21:14:54.046Z,0
2017-12-19T21:16:02.845Z,0
2017-12-19T21:17:11.726Z,0
2017-12-19T21:18:20.532Z,0
2017-12-19T21:19:29.067Z,0
2017-12-19T21:20:38.182Z,0
2017-12-19T21:21:47.249Z,0
2017-12-19T21:22:55.779Z,0
2017-12-19T21:24:04.589Z,0
2017-12-19T21:25:13.395Z,0
2017-12-19T21:26:22.247Z,0
2017-12-19T21:27:31.312Z,0
2017-12-19T21:28:40.108Z,0
2017-12-19T21:29:49.451Z,0
2017-12-19T21:30:58.307Z,0
2017-12-19T21:32:07.431Z,0
2017-12-19T21:33:16.227Z,0
2017-12-19T21:34:24.761Z,0
2017-12-19T21:35:33.295Z,0
2017-12-19T21:36:42.366Z,0
2017-12-19T21:37:50.947Z,0
2017-12-19T21:38:59.483Z,0
2017-12-19T21:40:08.282Z,0
2017-12-19T21:41:16.821Z,0
2017-12-19T21:42:25.397Z,0
2017-12-19T21:43:34.416Z,0
2017-12-19T21:44:42.949Z,0
2017-12-19T21:45:51.749Z,0
2017-12-19T21:47:00.282Z,0
2017-12-19T21:48:09.078Z,0
2017-12-19T21:49:17.883Z,0
2017-12-19T21:50:26.950Z,0
2017-12-19T21:51:36.070Z,0
2017-12-19T21:52:44.816Z,0
2017-12-19T21:53:53.350Z,0
2017-12-19T21:55:02.466Z,0
2017-12-19T21:56:11.267Z,0
2017-12-19T21:57:19.809Z,0
2017-12-19T21:58:28.611Z,0
2017-12-19T21:59:37.144Z,0
2017-12-19T22:00:46.215Z,0
2017-12-19T22:01:54.750Z,0
2017-12-19T22:03:03.555Z,0
2017-12-19T22:04:12.890Z,0
2017-12-19T22:05:21.421Z,0
2017-12-19T22:06:30.274Z,0
2017-12-19T22:07:39.075Z,0
2017-12-19T22:08:47.611Z,0
2017-12-19T22:09:56.409Z,0
2017-12-19T22:11:05.206Z,0
2017-12-19T22:12:13.739Z,0
2017-12-19T22:13:22.537Z,0
2017-12-19T22:14:31.340Z,0
2017-12-19T22:15:39.873Z,0
2017-12-19T22:16:48.671Z,0
2017-12-19T22:17:57.736Z,0
2017-12-19T22:19:06.854Z,0
2017-12-19T22:20:16.193Z,0
2017-12-19T22:21:24.728Z,0
2017-12-19T22:22:33.527Z,0
2017-12-19T22:23:42.384Z,0
2017-12-19T22:24:51.726Z,0
2017-12-19T22:26:00.527Z,0
2017-12-19T22:27:09.598Z,0
2017-12-19T22:28:18.459Z,0
2017-12-19T22:29:27.800Z,0
2017-12-19T22:30:36.338Z,0
2017-12-19T22:31:45.408Z,0
2017-12-19T22:32:54.741Z,0
2017-12-19T22:34:04.075Z,0
2017-12-19T22:35:12.933Z,0
2017-12-19T22:36:22.393Z,0
2017-12-19T22:37:30.927Z,0
2017-12-19T22:38:39.724Z,0
2017-12-19T22:39:48.790Z,0
2017-12-19T22:40:57.593Z,0
2017-12-19T22:42:06.124Z,0
2017-12-19T22:43:14.924Z,0
2017-12-19T22:44:23.721Z,0
2017-12-19T22:45:32.518Z,0
2017-12-19T22:46:41.369Z,0
2017-12-19T22:47:49.900Z,0
2017-12-19T22:48:58.703Z,0
2017-12-19T22:50:07.773Z,0
2017-12-19T22:51:17.107Z,0
2017-12-19T22:52:26.224Z,0
2017-12-19T22:53:34.757Z,0
2017-12-19T22:54:44.092Z,0
2017-12-19T22:55:52.890Z,0
2017-12-19T22:57:01.423Z,0
2017-12-19T22:58:10.224Z,0
2017-12-19T22:59:19.024Z,0
2017-12-19T23:00:27.555Z,0
2017-12-19T23:01:36.353Z,0
2017-12-19T23:02:45.223Z,0
2017-12-19T23:03:53.806Z,0
2017-12-19T23:05:02.873Z,0